createdAt,value
2017-04-22T00:00:00.447Z,6.40
2017-04-22T00:01:00.811Z,6.30
2017-04-22T00:02:00.252Z,6.30
2017-04-22T00:02:59.733Z,6.30
2017-04-22T00:03:59.251Z,6.30
2017-04-22T00:04:59.174Z,6.30
2017-04-22T00:05:58.603Z,6.30
2017-04-22T00:06:58.044Z,6.40
2017-04-22T00:07:58.212Z,6.40
2017-04-22T00:08:57.714Z,6.30
2017-04-22T00:17:16.714Z,6.20
2017-04-22T00:18:16.326Z,6.30
2017-04-22T00:19:15.827Z,6.20
2017-04-22T00:20:15.329Z,6.10
2017-04-22T00:21:14.799Z,6.20
2017-04-22T00:22:14.260Z,6.20
2017-04-22T00:23:14.604Z,6.20
2017-04-22T00:24:14.038Z,6.20
2017-04-22T00:25:13.579Z,6.10
2017-04-22T00:26:13.289Z,6.10
2017-04-22T00:27:13.122Z,6.10
2017-04-22T00:28:12.608Z,6.00
2017-04-22T00:29:12.124Z,6.00
2017-04-22T00:30:12.672Z,6.00
2017-04-22T00:31:12.432Z,5.90
2017-04-22T00:32:11.962Z,5.90
2017-04-22T00:33:11.440Z,5.90
2017-04-22T00:34:10.905Z,5.90
2017-04-22T00:35:10.572Z,6.00
2017-04-22T00:36:10.303Z,6.10
2017-04-22T00:37:09.947Z,6.10
2017-04-22T00:38:10.252Z,6.00
2017-04-22T00:39:09.723Z,6.10
2017-04-22T00:40:09.518Z,6.10
2017-04-22T00:41:09.183Z,6.00
2017-04-22T00:42:08.726Z,6.00
2017-04-22T00:43:08.147Z,6.00
2017-04-22T00:44:08.396Z,6.10
2017-04-22T00:45:08.660Z,6.10
2017-04-22T00:46:08.167Z,6.10
2017-04-22T00:47:07.624Z,6.10
2017-04-22T00:48:07.099Z,6.10
2017-04-22T00:49:06.604Z,6.10
2017-04-22T00:50:06.070Z,6.10
2017-04-22T00:51:05.533Z,6.10
2017-04-22T00:52:05.941Z,6.10
2017-04-22T00:53:05.381Z,6.10
2017-04-22T00:54:04.843Z,6.10
2017-04-22T00:55:05.049Z,6.10
2017-04-22T00:56:05.264Z,6.20
2017-04-22T00:57:05.528Z,6.20
2017-04-22T00:58:05.008Z,6.20
2017-04-22T00:59:04.464Z,6.20
2017-04-22T01:00:03.916Z,6.30
2017-04-22T01:01:03.453Z,6.30
2017-04-22T01:02:03.733Z,6.30
2017-04-22T01:03:03.380Z,6.30
2017-04-22T01:04:02.856Z,6.30
2017-04-22T01:05:03.053Z,6.30
2017-04-22T01:06:02.527Z,6.30
2017-04-22T01:07:02.020Z,6.30
2017-04-22T01:08:01.449Z,6.30
2017-04-22T01:09:01.890Z,6.30
2017-04-22T01:10:01.290Z,6.30
2017-04-22T01:11:00.744Z,6.20
2017-04-22T01:12:00.179Z,6.10
2017-04-22T01:12:59.605Z,6.10
2017-04-22T01:13:59.130Z,6.10
2017-04-22T01:14:58.955Z,6.10
2017-04-22T01:15:58.393Z,6.10
2017-04-22T01:16:57.889Z,6.00
2017-04-22T01:17:57.362Z,6.00
2017-04-22T01:18:56.807Z,6.00
2017-04-22T01:20:56.101Z,5.90
2017-04-22T01:21:55.564Z,5.90
2017-04-22T01:22:55.179Z,5.90
2017-04-22T01:23:54.601Z,5.90
2017-04-22T01:24:54.903Z,5.80
2017-04-22T01:25:55.179Z,5.80
2017-04-22T01:26:54.635Z,5.80
2017-04-22T01:27:54.177Z,5.70
2017-04-22T01:28:53.671Z,5.70
2017-04-22T01:29:53.191Z,5.70
2017-04-22T01:30:53.406Z,5.70
2017-04-22T01:31:53.850Z,5.70
2017-04-22T01:32:53.301Z,5.70
2017-04-22T01:33:52.725Z,5.70
2017-04-22T01:34:52.169Z,5.70
2017-04-22T01:35:51.597Z,5.60
2017-04-22T01:36:51.867Z,5.60
2017-04-22T01:37:51.511Z,5.70
2017-04-22T01:38:50.977Z,5.60
2017-04-22T01:39:50.487Z,5.60
2017-04-22T01:40:49.959Z,5.60
2017-04-22T01:41:49.428Z,5.60
2017-04-22T01:42:48.831Z,5.60
2017-04-22T01:43:48.321Z,5.60
2017-04-22T01:44:47.791Z,5.60
2017-04-22T01:45:47.208Z,5.60
2017-04-22T01:46:46.677Z,5.60
2017-04-22T01:47:46.141Z,5.60
2017-04-22T01:48:46.341Z,5.50
2017-04-22T01:49:46.082Z,5.60
2017-04-22T01:50:45.552Z,5.60
2017-04-22T01:51:45.052Z,5.70
2017-04-22T01:52:44.528Z,5.70
2017-04-22T01:53:44.027Z,5.70
2017-04-22T01:54:43.463Z,5.70
2017-04-22T01:55:43.251Z,5.70
2017-04-22T01:56:42.718Z,5.70
2017-04-22T01:57:42.161Z,5.80
2017-04-22T01:58:41.685Z,5.80
2017-04-22T01:59:41.195Z,5.90
2017-04-22T02:00:40.656Z,5.90
2017-04-22T02:01:40.321Z,5.90
2017-04-22T02:02:39.886Z,5.90
2017-04-22T02:03:39.373Z,6.00
2017-04-22T02:04:38.823Z,6.00
2017-04-22T02:05:38.301Z,6.00
2017-04-22T02:06:37.729Z,6.00
2017-04-22T02:07:37.379Z,6.00
2017-04-22T02:08:36.845Z,6.00
2017-04-22T02:09:36.322Z,6.10
2017-04-22T02:10:35.854Z,6.10
2017-04-22T02:11:35.307Z,6.10
2017-04-22T02:12:34.779Z,6.10
2017-04-22T02:13:34.440Z,6.10
2017-04-22T02:14:34.799Z,6.10
2017-04-22T02:15:34.387Z,6.00
2017-04-22T02:16:33.844Z,6.00
2017-04-22T02:17:33.405Z,6.00
2017-04-22T02:18:32.835Z,5.90
2017-04-22T02:19:32.653Z,5.80
2017-04-22T02:20:32.812Z,5.70
2017-04-22T02:21:32.419Z,5.70
2017-04-22T02:22:31.872Z,5.70
2017-04-22T02:23:31.325Z,5.60
2017-04-22T02:24:30.764Z,5.60
2017-04-22T02:25:30.395Z,5.60
2017-04-22T02:26:29.855Z,5.50
2017-04-22T02:27:29.637Z,5.50
2017-04-22T02:28:29.100Z,5.50
2017-04-22T02:29:28.555Z,5.50
2017-04-22T02:30:27.992Z,5.50
2017-04-22T02:31:27.462Z,5.50
2017-04-22T02:32:26.929Z,5.50
2017-04-22T02:33:26.389Z,5.50
2017-04-22T02:34:25.848Z,5.40
2017-04-22T02:35:25.304Z,5.40
2017-04-22T02:36:24.782Z,5.30
2017-04-22T02:37:25.024Z,5.40
2017-04-22T02:38:24.503Z,5.40
2017-04-22T02:39:23.999Z,5.40
2017-04-22T02:40:23.455Z,5.50
2017-04-22T02:41:23.677Z,5.40
2017-04-22T02:42:23.856Z,5.40
2017-04-22T02:43:23.601Z,5.40
2017-04-22T02:44:23.063Z,5.40
2017-04-22T02:45:22.517Z,5.40
2017-04-22T02:46:21.989Z,5.30
2017-04-22T02:47:21.448Z,5.30
2017-04-22T02:48:20.908Z,5.30
2017-04-22T02:49:21.441Z,5.20
2017-04-22T02:50:20.928Z,5.30
2017-04-22T02:51:20.393Z,5.20
2017-04-22T02:52:19.887Z,5.20
2017-04-22T02:53:19.410Z,5.20
2017-04-22T02:54:18.856Z,5.20
2017-04-22T02:55:19.216Z,5.20
2017-04-22T02:56:18.681Z,5.10
2017-04-22T02:57:18.193Z,5.10
2017-04-22T02:58:17.638Z,5.10
2017-04-22T02:59:17.113Z,5.00
2017-04-22T03:00:17.578Z,5.10
2017-04-22T03:01:17.191Z,5.10
2017-04-22T03:02:16.661Z,5.20
2017-04-22T03:03:16.096Z,5.20
2017-04-22T03:04:15.583Z,5.10
2017-04-22T03:05:15.009Z,5.10
2017-04-22T03:06:14.457Z,5.10
2017-04-22T03:07:13.949Z,5.20
2017-04-22T03:08:13.372Z,5.20
2017-04-22T03:09:12.803Z,5.20
2017-04-22T03:10:13.010Z,5.20
2017-04-22T03:11:12.470Z,5.30
2017-04-22T03:12:11.931Z,5.40
2017-04-22T03:13:11.416Z,5.40
2017-04-22T03:14:10.867Z,5.40
2017-04-22T03:15:10.339Z,5.40
2017-04-22T03:16:09.816Z,5.40
2017-04-22T03:17:09.279Z,5.40
2017-04-22T03:18:09.483Z,5.50
2017-04-22T03:19:09.713Z,5.60
2017-04-22T03:20:09.223Z,5.70
2017-04-22T03:21:09.679Z,5.80
2017-04-22T03:22:09.136Z,5.80
2017-04-22T03:23:08.587Z,5.80
2017-04-22T03:24:08.063Z,5.80
2017-04-22T03:25:07.561Z,5.80
2017-04-22T03:26:07.057Z,5.70
2017-04-22T03:27:06.532Z,5.70
2017-04-22T03:28:06.085Z,5.70
2017-04-22T03:29:05.554Z,5.70
2017-04-22T03:30:05.043Z,5.70
2017-04-22T03:31:04.673Z,5.70
2017-04-22T03:32:04.145Z,5.70
2017-04-22T03:33:04.348Z,5.70
2017-04-22T03:34:03.768Z,5.70
2017-04-22T03:35:03.208Z,5.70
2017-04-22T03:36:02.667Z,5.70
2017-04-22T03:37:02.938Z,5.80
2017-04-22T03:38:02.574Z,5.80
2017-04-22T03:39:02.304Z,5.80
2017-04-22T03:40:01.768Z,5.80
2017-04-22T03:41:01.264Z,5.90
2017-04-22T03:42:00.709Z,5.90
2017-04-22T03:43:00.566Z,5.90
2017-04-22T03:43:59.992Z,5.90
2017-04-22T03:44:59.416Z,5.90
2017-04-22T03:45:58.897Z,5.90
2017-04-22T03:46:58.353Z,5.90
2017-04-22T03:47:57.800Z,5.90
2017-04-22T03:48:57.291Z,5.90
2017-04-22T03:49:57.522Z,5.90
2017-04-22T03:50:57.009Z,5.90
2017-04-22T03:51:57.212Z,5.90
2017-04-22T03:52:56.675Z,5.90
2017-04-22T03:53:56.118Z,5.90
2017-04-22T03:54:56.019Z,5.90
2017-04-22T03:55:55.475Z,5.90
2017-04-22T03:56:54.931Z,5.90
2017-04-22T03:57:54.387Z,5.90
2017-04-22T03:58:54.603Z,5.90
2017-04-22T03:59:54.088Z,5.90
2017-04-22T04:00:54.027Z,5.80
2017-04-22T04:01:53.456Z,5.80
2017-04-22T04:02:52.928Z,5.70
2017-04-22T04:03:52.416Z,5.70
2017-04-22T04:04:51.947Z,5.70
2017-04-22T04:05:51.386Z,5.60
2017-04-22T04:06:50.883Z,5.60
2017-04-22T04:07:50.450Z,5.60
2017-04-22T04:08:49.897Z,5.50
2017-04-22T04:09:49.455Z,5.40
2017-04-22T04:10:49.673Z,5.40
2017-04-22T04:11:49.870Z,5.30
2017-04-22T04:12:49.651Z,5.30
2017-04-22T04:13:49.112Z,5.30
2017-04-22T04:14:48.573Z,5.30
2017-04-22T04:15:48.740Z,5.40
2017-04-22T04:16:51.123Z,5.40
2017-04-22T04:17:50.876Z,5.40
2017-04-22T04:18:50.347Z,5.40
2017-04-22T04:19:49.818Z,5.40
2017-04-22T04:20:50.024Z,5.40
2017-04-22T04:21:49.475Z,5.50
2017-04-22T04:22:48.916Z,5.50
2017-04-22T04:23:48.539Z,5.60
2017-04-22T04:24:48.002Z,5.50
2017-04-22T04:25:47.495Z,5.50
2017-04-22T04:26:46.964Z,5.50
2017-04-22T04:27:46.520Z,5.40
2017-04-22T04:28:45.989Z,5.40
2017-04-22T04:29:45.696Z,5.30
2017-04-22T04:30:45.195Z,5.30
2017-04-22T04:31:45.368Z,5.20
2017-04-22T04:32:44.815Z,5.20
2017-04-22T04:33:44.281Z,5.20
2017-04-22T04:34:43.708Z,5.10
2017-04-22T04:35:43.243Z,5.10
2017-04-22T04:36:42.676Z,5.10
2017-04-22T04:37:42.850Z,5.20
2017-04-22T04:38:42.296Z,5.20
2017-04-22T04:39:41.742Z,5.10
2017-04-22T04:40:41.188Z,5.10
2017-04-22T04:41:40.974Z,5.20
2017-04-22T04:42:40.404Z,5.30
2017-04-22T04:43:39.847Z,5.30
2017-04-22T04:44:39.299Z,5.30
2017-04-22T04:45:38.753Z,5.30
2017-04-22T04:46:38.215Z,5.30
2017-04-22T04:47:38.023Z,5.20
2017-04-22T04:48:38.239Z,5.20
2017-04-22T04:49:38.419Z,5.20
2017-04-22T04:50:37.884Z,5.30
2017-04-22T04:51:37.355Z,5.30
2017-04-22T04:52:36.867Z,5.30
2017-04-22T04:53:36.446Z,5.30
2017-04-22T04:54:35.927Z,5.30
2017-04-22T04:55:36.132Z,5.30
2017-04-22T04:56:35.587Z,5.30
2017-04-22T04:57:35.028Z,5.30
2017-04-22T04:58:35.215Z,5.20
2017-04-22T04:59:34.852Z,5.20
2017-04-22T05:00:34.312Z,5.30
2017-04-22T05:01:34.537Z,5.40
2017-04-22T05:02:34.729Z,5.50
2017-04-22T05:03:34.204Z,5.70
2017-04-22T05:04:33.688Z,5.80
2017-04-22T05:05:33.214Z,6.00
2017-04-22T05:06:32.692Z,6.10
2017-04-22T05:07:32.990Z,6.00
2017-04-22T05:08:32.431Z,6.10
2017-04-22T05:09:32.633Z,6.20
2017-04-22T05:10:32.046Z,6.10
2017-04-22T05:11:32.480Z,6.00
2017-04-22T05:12:31.964Z,6.00
2017-04-22T05:13:31.425Z,6.10
2017-04-22T05:14:30.843Z,6.10
2017-04-22T05:15:30.315Z,6.10
2017-04-22T05:16:29.814Z,6.10
2017-04-22T05:18:29.731Z,6.20
2017-04-22T05:19:29.927Z,6.20
2017-04-22T05:20:29.406Z,6.30
2017-04-22T05:21:28.845Z,6.30
2017-04-22T05:22:28.778Z,6.40
2017-04-22T05:23:28.265Z,6.30
2017-04-22T05:24:27.924Z,6.40
2017-04-22T05:25:28.155Z,6.40
2017-04-22T05:26:28.013Z,6.50
2017-04-22T05:27:27.760Z,6.50
2017-04-22T05:28:27.410Z,6.50
2017-04-22T05:29:26.943Z,6.50
2017-04-22T05:30:27.413Z,6.50
2017-04-22T05:31:26.862Z,6.50
2017-04-22T05:32:27.044Z,6.50
2017-04-22T05:33:26.784Z,6.40
2017-04-22T05:34:26.270Z,6.40
2017-04-22T05:35:28.265Z,6.40
2017-04-22T05:36:27.709Z,6.30
2017-04-22T05:37:27.925Z,6.20
2017-04-22T05:38:27.592Z,6.10
2017-04-22T05:39:27.058Z,6.10
2017-04-22T05:40:26.580Z,6.10
2017-04-22T05:41:26.856Z,6.00
2017-04-22T05:42:26.720Z,6.10
2017-04-22T05:43:26.951Z,6.00
2017-04-22T05:44:26.412Z,6.00
2017-04-22T05:45:25.842Z,6.00
2017-04-22T05:46:25.293Z,6.00
2017-04-22T05:47:24.773Z,6.10
2017-04-22T05:48:24.251Z,6.10
2017-04-22T05:49:24.019Z,6.20
2017-04-22T05:50:24.356Z,6.20
2017-04-22T05:51:24.015Z,6.20
2017-04-22T05:52:23.515Z,6.20
2017-04-22T05:53:25.480Z,6.20
2017-04-22T05:54:25.920Z,6.20
2017-04-22T05:55:25.919Z,6.10
2017-04-22T05:56:25.329Z,6.10
2017-04-22T05:57:26.032Z,6.10
2017-04-22T05:58:25.647Z,6.00
2017-04-22T05:59:25.243Z,6.00
2017-04-22T06:00:24.735Z,5.90
2017-04-22T06:01:24.279Z,5.90
2017-04-22T06:02:24.321Z,5.90
2017-04-22T06:03:23.796Z,5.90
2017-04-22T06:04:23.267Z,5.90
2017-04-22T06:05:23.676Z,5.90
2017-04-22T06:06:25.997Z,6.00
2017-04-22T06:07:27.123Z,6.00
2017-04-22T06:08:26.580Z,6.00
2017-04-22T06:09:26.021Z,6.10
2017-04-22T06:10:25.512Z,6.10
2017-04-22T06:11:25.619Z,6.20
2017-04-22T06:12:25.191Z,6.10
2017-04-22T06:13:24.639Z,6.10
2017-04-22T06:15:25.757Z,6.10
2017-04-22T06:16:27.098Z,6.10
2017-04-22T06:17:26.850Z,6.10
2017-04-22T06:18:26.334Z,6.10
2017-04-22T06:19:26.544Z,6.10
2017-04-22T06:20:26.280Z,6.10
2017-04-22T06:21:26.381Z,6.20
2017-04-22T06:22:26.316Z,6.20
2017-04-22T06:23:26.339Z,6.20
2017-04-22T06:24:29.487Z,6.20
2017-04-22T06:25:29.276Z,6.20
2017-04-22T06:26:28.736Z,6.20
2017-04-22T06:27:29.068Z,6.30
2017-04-22T06:28:29.542Z,6.30
2017-04-22T06:29:28.979Z,6.30
2017-04-22T06:30:28.524Z,6.30
2017-04-22T06:31:28.398Z,6.40
2017-04-22T06:32:27.859Z,6.40
2017-04-22T06:33:27.558Z,6.40
2017-04-22T06:34:27.011Z,6.40
2017-04-22T06:35:26.474Z,6.50
2017-04-22T06:36:26.284Z,6.50
2017-04-22T06:37:25.784Z,6.50
2017-04-22T06:38:25.329Z,6.50
2017-04-22T06:39:24.775Z,6.50
2017-04-22T06:40:24.312Z,6.40
2017-04-22T06:41:23.765Z,6.40
2017-04-22T06:42:23.668Z,6.40
2017-04-22T06:43:23.128Z,6.50
2017-04-22T06:44:23.344Z,6.60
2017-04-22T06:45:22.851Z,6.60
2017-04-22T06:46:23.081Z,6.60
2017-04-22T06:47:22.519Z,6.70
2017-04-22T06:48:22.665Z,6.70
2017-04-22T06:49:22.907Z,6.70
2017-04-22T06:50:22.681Z,6.60
2017-04-22T06:51:22.357Z,6.60
2017-04-22T06:52:21.855Z,6.80
2017-04-22T06:53:21.317Z,6.80
2017-04-22T06:55:20.689Z,6.90
2017-04-22T06:56:20.419Z,7.00
2017-04-22T06:57:20.076Z,7.00
2017-04-22T06:58:19.501Z,7.00
2017-04-22T06:59:18.964Z,7.00
2017-04-22T07:00:18.453Z,7.00
2017-04-22T07:01:17.941Z,7.00
2017-04-22T07:02:23.840Z,7.00
2017-04-22T07:03:23.335Z,7.00
2017-04-22T07:04:22.838Z,7.10
2017-04-22T07:05:23.611Z,7.10
2017-04-22T07:06:23.141Z,7.10
2017-04-22T07:07:23.367Z,7.20
2017-04-22T07:08:22.815Z,7.20
2017-04-22T07:09:22.849Z,7.30
2017-04-22T07:10:22.315Z,7.30
2017-04-22T07:11:21.904Z,7.30
2017-04-22T07:12:20.631Z,7.30
2017-04-22T07:13:20.088Z,7.40
2017-04-22T07:14:19.568Z,7.40
2017-04-22T07:15:19.014Z,7.40
2017-04-22T07:16:18.503Z,7.40
2017-04-22T07:17:18.108Z,7.50
2017-04-22T07:18:17.591Z,7.50
2017-04-22T07:19:16.988Z,7.50
2017-04-22T07:20:16.500Z,7.50
2017-04-22T07:21:15.937Z,7.70
2017-04-22T07:22:15.534Z,7.70
2017-04-22T07:23:15.260Z,7.80
2017-04-22T07:24:14.909Z,7.90
2017-04-22T07:25:15.113Z,8.00
2017-04-22T07:26:15.325Z,8.00
2017-04-22T07:27:15.511Z,8.00
2017-04-22T07:28:15.762Z,8.10
2017-04-22T07:29:15.324Z,8.10
2017-04-22T07:30:14.804Z,8.20
2017-04-22T07:31:14.286Z,8.30
2017-04-22T07:32:13.710Z,8.30
2017-04-22T07:33:13.200Z,8.30
2017-04-22T07:34:13.049Z,8.20
2017-04-22T07:35:12.484Z,8.00
2017-04-22T07:36:12.050Z,8.00
2017-04-22T07:37:11.537Z,7.90
2017-04-22T07:38:10.986Z,7.90
2017-04-22T07:39:10.560Z,7.90
2017-04-22T07:40:10.023Z,7.80
2017-04-22T07:41:09.460Z,7.80
2017-04-22T07:42:08.936Z,7.80
2017-04-22T07:43:08.359Z,7.80
2017-04-22T07:44:07.800Z,7.70
2017-04-22T07:45:07.288Z,7.70
2017-04-22T07:46:06.882Z,7.60
2017-04-22T07:47:06.413Z,7.40
2017-04-22T07:48:05.939Z,7.30
2017-04-22T07:49:05.407Z,7.10
2017-04-22T07:50:04.909Z,6.80
2017-04-22T07:51:04.467Z,6.40
2017-04-22T07:52:04.124Z,6.10
2017-04-22T07:53:03.595Z,5.90
2017-04-22T07:54:03.306Z,5.80
2017-04-22T07:55:02.809Z,5.70
2017-04-22T07:56:02.290Z,5.60
2017-04-22T07:57:01.783Z,5.50
2017-04-22T07:58:01.295Z,5.50
2017-04-22T07:59:00.839Z,5.40
2017-04-22T08:00:00.344Z,5.40
2017-04-22T08:00:59.796Z,5.30
2017-04-22T08:02:00.128Z,5.30
2017-04-22T08:03:00.157Z,5.20
2017-04-22T08:03:59.651Z,5.30
2017-04-22T08:04:59.189Z,5.30
2017-04-22T08:05:58.677Z,5.30
2017-04-22T08:06:58.293Z,5.30
2017-04-22T08:07:57.780Z,5.40
2017-04-22T08:08:57.333Z,5.40
2017-04-22T08:09:57.851Z,5.40
2017-04-22T08:10:57.354Z,5.40
2017-04-22T08:11:56.856Z,5.40
2017-04-22T08:12:56.539Z,5.40
2017-04-22T08:13:56.054Z,5.40
2017-04-22T08:14:55.627Z,5.40
2017-04-22T08:15:55.408Z,5.50
2017-04-22T08:16:54.932Z,5.50
2017-04-22T08:17:54.425Z,5.50
2017-04-22T08:18:53.917Z,5.50
2017-04-22T08:19:53.361Z,5.50
2017-04-22T08:20:53.601Z,5.60
2017-04-22T08:21:53.155Z,5.80
2017-04-22T08:22:52.668Z,5.80
2017-04-22T08:23:52.221Z,5.90
2017-04-22T08:24:51.690Z,6.00
2017-04-22T08:25:51.138Z,6.10
2017-04-22T08:26:50.605Z,6.20
2017-04-22T08:27:50.397Z,6.30
2017-04-22T08:28:49.893Z,6.40
2017-04-22T08:29:49.556Z,6.50
2017-04-22T08:30:49.040Z,6.60
2017-04-22T08:31:49.516Z,6.80
2017-04-22T08:32:49.101Z,6.80
2017-04-22T08:33:48.683Z,6.80
2017-04-22T08:34:48.152Z,6.90
2017-04-22T08:35:48.354Z,6.90
2017-04-22T08:36:48.595Z,6.90
2017-04-22T08:37:48.185Z,7.00
2017-04-22T08:38:47.652Z,7.10
2017-04-22T08:39:47.181Z,7.10
2017-04-22T08:40:46.649Z,6.90
2017-04-22T08:41:46.149Z,6.80
2017-04-22T08:42:46.367Z,6.60
2017-04-22T08:43:45.956Z,6.40
2017-04-22T08:44:45.680Z,6.30
2017-04-22T08:45:45.310Z,6.30
2017-04-22T08:46:52.011Z,6.20
2017-04-22T08:47:45.239Z,6.10
2017-04-22T08:48:44.745Z,6.10
2017-04-22T08:49:44.251Z,6.00
2017-04-22T08:50:44.524Z,6.00
2017-04-22T08:51:44.096Z,5.90
2017-04-22T08:52:43.567Z,5.90
2017-04-22T08:53:43.053Z,5.90
2017-04-22T08:54:43.547Z,5.80
2017-04-22T08:55:44.678Z,5.80
2017-04-22T08:56:44.202Z,5.80
2017-04-22T08:57:43.669Z,5.80
2017-04-22T08:58:43.944Z,5.80
2017-04-22T08:59:43.399Z,5.80
2017-04-22T09:00:43.647Z,5.70
2017-04-22T09:01:43.230Z,5.80
2017-04-22T09:02:42.749Z,5.80
2017-04-22T09:03:42.304Z,5.80
2017-04-22T09:04:41.849Z,5.80
2017-04-22T09:05:41.326Z,5.80
2017-04-22T09:06:40.972Z,5.90
2017-04-22T09:07:40.431Z,5.90
2017-04-22T09:08:39.892Z,6.00
2017-04-22T09:09:39.353Z,6.10
2017-04-22T09:10:38.914Z,6.10
2017-04-22T09:11:38.649Z,6.20
2017-04-22T09:12:38.971Z,6.20
2017-04-22T09:13:39.252Z,6.40
2017-04-22T09:14:39.592Z,6.60
2017-04-22T09:15:44.456Z,6.70
2017-04-22T09:16:47.417Z,6.90
2017-04-22T09:17:48.808Z,7.10
2017-04-22T09:18:49.156Z,7.20
2017-04-22T09:19:48.633Z,7.30
2017-04-22T09:20:48.083Z,7.30
2017-04-22T09:21:47.573Z,7.30
2017-04-22T09:22:47.142Z,7.20
2017-04-22T09:23:47.533Z,7.10
2017-04-22T09:24:47.038Z,7.10
2017-04-22T09:25:47.335Z,7.20
2017-04-22T09:26:46.794Z,7.20
2017-04-22T09:27:46.266Z,7.30
2017-04-22T09:28:45.809Z,7.30
2017-04-22T09:29:45.382Z,7.30
2017-04-22T09:30:44.888Z,7.40
2017-04-22T09:31:44.373Z,7.40
2017-04-22T09:32:43.967Z,7.50
2017-04-22T09:33:43.464Z,7.60
2017-04-22T09:34:42.937Z,7.60
2017-04-22T09:35:42.758Z,7.60
2017-04-22T09:36:44.055Z,7.50
2017-04-22T09:37:44.329Z,7.40
2017-04-22T09:38:44.946Z,7.40
2017-04-22T09:39:45.153Z,7.40
2017-04-22T09:40:44.796Z,7.40
2017-04-22T09:41:44.443Z,7.40
2017-04-22T09:42:43.930Z,7.40
2017-04-22T09:43:43.471Z,7.40
2017-04-22T09:44:43.303Z,7.40
2017-04-22T09:45:42.964Z,7.40
2017-04-22T09:46:42.754Z,7.40
2017-04-22T09:48:41.932Z,7.60
2017-04-22T09:49:41.467Z,7.60
2017-04-22T09:50:40.991Z,7.60
2017-04-22T09:51:40.464Z,7.60
2017-04-22T09:52:40.166Z,7.70
2017-04-22T09:53:40.353Z,7.60
2017-04-22T09:54:39.815Z,7.60
2017-04-22T09:55:39.251Z,7.60
2017-04-22T09:56:38.912Z,7.40
2017-04-22T09:57:38.373Z,7.30
2017-04-22T09:58:37.945Z,6.70
2017-04-22T09:59:39.100Z,6.40
2017-04-22T10:00:38.563Z,6.10
2017-04-22T10:01:38.022Z,6.00
2017-04-22T10:02:37.507Z,5.90
2017-04-22T10:03:37.043Z,5.90
2017-04-22T10:04:36.623Z,5.90
2017-04-22T10:05:36.108Z,5.90
2017-04-22T10:06:35.577Z,5.80
2017-04-22T10:07:35.137Z,5.80
2017-04-22T10:08:34.622Z,5.90
2017-04-22T10:09:34.530Z,5.90
2017-04-22T10:10:33.992Z,5.90
2017-04-22T10:11:33.548Z,5.90
2017-04-22T10:12:33.180Z,5.90
2017-04-22T10:13:32.619Z,5.90
2017-04-22T10:14:32.915Z,5.90
2017-04-22T10:15:32.472Z,6.00
2017-04-22T10:16:31.974Z,6.00
2017-04-22T10:17:32.225Z,6.10
2017-04-22T10:18:31.951Z,6.20
2017-04-22T10:19:31.415Z,6.20
2017-04-22T10:20:30.975Z,6.40
2017-04-22T10:21:30.527Z,6.50
2017-04-22T10:22:30.801Z,6.60
2017-04-22T10:23:30.256Z,6.80
2017-04-22T10:24:29.727Z,6.90
2017-04-22T10:25:29.944Z,7.00
2017-04-22T10:26:30.215Z,7.10
2017-04-22T10:27:30.668Z,7.20
2017-04-22T10:28:30.935Z,7.30
2017-04-22T10:29:30.662Z,7.40
2017-04-22T10:30:30.242Z,7.40
2017-04-22T10:31:30.004Z,7.30
2017-04-22T10:32:29.586Z,7.20
2017-04-22T10:33:29.177Z,7.10
2017-04-22T10:34:29.447Z,7.10
2017-04-22T10:35:28.984Z,7.00
2017-04-22T10:36:29.188Z,6.90
2017-04-22T10:37:29.831Z,6.90
2017-04-22T10:38:29.413Z,6.90
2017-04-22T10:39:29.712Z,6.90
2017-04-22T10:40:29.325Z,6.90
2017-04-22T10:41:29.640Z,6.90
2017-04-22T10:42:29.175Z,6.90
2017-04-22T10:43:28.858Z,7.00
2017-04-22T10:44:28.375Z,7.10
2017-04-22T10:45:27.928Z,7.20
2017-04-22T10:46:28.140Z,7.40
2017-04-22T10:47:28.152Z,7.50
2017-04-22T10:48:27.946Z,7.60
2017-04-22T10:49:28.208Z,7.60
2017-04-22T10:50:27.703Z,7.70
2017-04-22T10:51:27.326Z,7.70
2017-04-22T10:52:26.880Z,7.80
2017-04-22T10:53:26.389Z,8.20
2017-04-22T10:54:25.986Z,8.00
2017-04-22T10:55:25.529Z,8.00
2017-04-22T10:56:25.307Z,8.10
2017-04-22T10:57:24.792Z,8.30
2017-04-22T10:58:24.564Z,8.30
2017-04-22T10:59:24.133Z,8.30
2017-04-22T11:00:23.952Z,8.40
2017-04-22T11:01:23.657Z,8.30
2017-04-22T11:02:23.359Z,8.30
2017-04-22T11:03:22.997Z,8.40
2017-04-22T11:04:22.609Z,8.50
2017-04-22T11:05:22.930Z,8.60
2017-04-22T11:06:23.443Z,8.70
2017-04-22T11:07:23.653Z,8.80
2017-04-22T11:08:23.249Z,8.90
2017-04-22T11:09:22.879Z,8.90
2017-04-22T11:10:22.426Z,8.90
2017-04-22T11:11:22.064Z,9.00
2017-04-22T11:12:21.987Z,9.10
2017-04-22T11:13:21.832Z,9.10
2017-04-22T11:14:21.441Z,9.20
2017-04-22T11:15:21.034Z,9.20
2017-04-22T11:16:20.857Z,9.20
2017-04-22T11:17:20.464Z,9.10
2017-04-22T11:18:20.321Z,9.00
2017-04-22T11:19:19.883Z,8.90
2017-04-22T11:20:19.576Z,8.60
2017-04-22T11:21:19.121Z,8.00
2017-04-22T11:22:18.663Z,7.50
2017-04-22T11:23:18.241Z,7.20
2017-04-22T11:24:18.175Z,6.90
2017-04-22T11:25:17.649Z,6.70
2017-04-22T11:26:17.996Z,6.60
2017-04-22T11:27:17.601Z,6.50
2017-04-22T11:28:17.961Z,6.40
2017-04-22T11:29:18.322Z,6.30
2017-04-22T11:30:17.918Z,6.30
2017-04-22T11:31:17.584Z,6.40
2017-04-22T11:32:17.880Z,6.50
2017-04-22T11:33:17.380Z,6.60
2017-04-22T11:34:17.692Z,6.70
2017-04-22T11:35:17.940Z,6.80
2017-04-22T11:36:18.218Z,6.80
2017-04-22T11:37:18.520Z,6.90
2017-04-22T11:38:18.543Z,6.80
2017-04-22T11:39:18.208Z,6.80
2017-04-22T11:40:17.816Z,6.90
2017-04-22T11:41:17.568Z,6.80
2017-04-22T11:42:17.210Z,6.80
2017-04-22T11:43:16.827Z,6.80
2017-04-22T11:44:17.085Z,6.70
2017-04-22T11:45:17.831Z,6.70
2017-04-22T11:46:17.877Z,6.60
2017-04-22T11:47:17.810Z,6.60
2017-04-22T11:48:17.511Z,6.60
2017-04-22T11:49:17.089Z,6.60
2017-04-22T11:50:16.736Z,6.70
2017-04-22T11:51:16.424Z,6.60
2017-04-22T11:52:16.056Z,6.70
2017-04-22T11:53:16.488Z,6.60
2017-04-22T11:54:16.039Z,6.70
2017-04-22T11:55:15.616Z,6.70
2017-04-22T11:56:15.383Z,6.80
2017-04-22T11:57:16.110Z,6.80
2017-04-22T11:58:16.049Z,6.80
2017-04-22T11:59:16.664Z,6.80
2017-04-22T12:00:16.295Z,6.90
2017-04-22T12:01:16.268Z,7.00
2017-04-22T12:02:16.045Z,7.00
2017-04-22T12:03:15.776Z,7.10
2017-04-22T12:04:15.560Z,7.20
2017-04-22T12:05:15.660Z,7.30
2017-04-22T12:06:15.605Z,7.50
2017-04-22T12:07:15.266Z,7.60
2017-04-22T12:08:15.087Z,7.70
2017-04-22T12:09:14.973Z,7.80
2017-04-22T12:10:14.748Z,7.80
2017-04-22T12:11:14.609Z,7.90
2017-04-22T12:12:14.462Z,8.00
2017-04-22T12:13:14.163Z,7.90
2017-04-22T12:14:13.789Z,7.90
2017-04-22T12:15:14.795Z,7.90
2017-04-22T12:16:15.175Z,7.80
2017-04-22T12:17:14.856Z,7.90
2017-04-22T12:18:14.991Z,7.90
2017-04-22T12:19:14.686Z,7.80
2017-04-22T12:20:14.841Z,7.80
2017-04-22T12:21:15.321Z,7.80
2017-04-22T12:22:14.887Z,7.60
2017-04-22T12:23:14.433Z,7.40
2017-04-22T12:24:14.130Z,7.30
2017-04-22T12:25:15.098Z,7.20
2017-04-22T12:26:14.957Z,7.10
2017-04-22T12:27:14.515Z,7.10
2017-04-22T12:28:14.116Z,7.00
2017-04-22T12:29:13.617Z,7.00
2017-04-22T12:30:13.228Z,7.00
2017-04-22T12:31:13.424Z,7.00
2017-04-22T12:32:13.115Z,7.00
2017-04-22T12:33:12.707Z,7.00
2017-04-22T12:34:12.538Z,7.00
2017-04-22T12:35:12.082Z,7.00
2017-04-22T12:36:11.607Z,7.00
2017-04-22T12:37:11.121Z,7.10
2017-04-22T12:38:10.725Z,7.10
2017-04-22T12:39:10.386Z,7.10
2017-04-22T12:40:11.125Z,7.20
2017-04-22T12:41:11.643Z,7.30
2017-04-22T12:42:11.189Z,7.40
2017-04-22T12:43:10.773Z,7.60
2017-04-22T12:44:10.480Z,7.60
2017-04-22T12:45:10.256Z,7.70
2017-04-22T12:46:09.837Z,7.70
2017-04-22T12:47:09.359Z,7.80
2017-04-22T12:48:08.869Z,7.80
2017-04-22T12:49:08.407Z,7.90
2017-04-22T12:50:08.052Z,7.80
2017-04-22T12:51:07.736Z,7.70
2017-04-22T12:52:07.633Z,7.40
2017-04-22T12:53:07.169Z,7.00
2017-04-22T12:54:06.689Z,6.80
2017-04-22T12:55:06.335Z,6.60
2017-04-22T12:56:05.892Z,6.60
2017-04-22T12:57:05.439Z,6.50
2017-04-22T12:58:05.037Z,6.50
2017-04-22T12:59:04.580Z,6.50
2017-04-22T13:00:04.240Z,6.40
2017-04-22T13:01:04.578Z,6.40
2017-04-22T13:02:04.094Z,6.40
2017-04-22T13:03:03.807Z,6.40
2017-04-22T13:04:03.329Z,6.40
2017-04-22T13:05:02.977Z,6.50
2017-04-22T13:06:02.501Z,6.60
2017-04-22T13:07:02.026Z,6.70
2017-04-22T13:08:02.381Z,6.70
2017-04-22T13:09:02.526Z,6.80
2017-04-22T13:10:02.355Z,6.90
2017-04-22T13:11:02.084Z,7.00
2017-04-22T13:12:01.690Z,7.00
2017-04-22T13:13:01.274Z,7.10
2017-04-22T13:14:00.909Z,7.20
2017-04-22T13:15:00.634Z,7.40
2017-04-22T13:16:00.237Z,7.50
2017-04-22T13:16:59.903Z,7.60
2017-04-22T13:18:00.224Z,7.70
2017-04-22T13:19:00.323Z,7.70
2017-04-22T13:20:00.042Z,7.70
2017-04-22T13:20:59.561Z,7.60
2017-04-22T13:21:59.219Z,7.60
2017-04-22T13:22:58.776Z,7.50
2017-04-22T13:23:58.317Z,7.40
2017-04-22T13:24:57.981Z,7.30
2017-04-22T13:25:57.713Z,7.20
2017-04-22T13:26:57.213Z,7.20